Time;durP1;ratioP1;P1;durP2;ratioP2;P2;SDS_P1;SDS_P2;PMS_P1;PMS_P2;Temp;Humidity;BMP_temperature;BMP_pressure;BME280_temperature;BME280_humidity;BME280_pressure;Samples;Min_cycle;Max_cycle;Signal;HPM_P1;HPM_P2
2022/07/08 00:00:41;;;;;;;;;10.67;9.00;27.90;32.80;;;;;;5097666;28;11415;-82
2022/07/08 00:03:07;;;;;;;;;13.00;13.00;27.80;33.10;;;;;;5097782;28;11414;-82
2022/07/08 00:05:33;;;;;;;;;12.33;12.33;27.50;33.80;;;;;;5097531;28;8841;-82
2022/07/08 00:07:59;;;;;;;;;9.67;9.67;27.40;34.20;;;;;;5079972;28;8756;-82
2022/07/08 00:10:25;;;;;;;;;12.67;11.33;27.30;34.60;;;;;;5097820;28;9420;-82
2022/07/08 00:12:51;;;;;;;;;5.67;5.67;26.80;35.70;;;;;;5097434;28;9500;-81
2022/07/08 00:15:17;;;;;;;;;8.00;8.00;26.50;35.90;;;;;;5097582;28;11553;-82
2022/07/08 00:17:43;;;;;;;;;10.00;9.00;26.70;35.80;;;;;;5097428;28;8808;-81
2022/07/08 00:20:10;;;;;;;;;9.00;9.00;26.40;36.50;;;;;;5097185;28;11456;-82
2022/07/08 00:22:36;;;;;;;;;8.00;8.00;26.30;36.30;;;;;;5097222;28;8902;-81
2022/07/08 00:25:03;;;;;;;;;9.67;8.67;26.50;35.70;;;;;;5097128;28;11408;-80
2022/07/08 00:27:29;;;;;;;;;10.00;10.00;26.30;36.00;;;;;;5097167;28;11537;-81
2022/07/08 00:29:55;;;;;;;;;6.33;6.33;26.20;36.10;;;;;;5097016;28;11433;-81
2022/07/08 00:32:21;;;;;;;;;7.00;7.00;26.20;36.00;;;;;;5097398;28;8792;-81
2022/07/08 00:34:47;;;;;;;;;6.67;6.67;26.10;36.30;;;;;;5097171;28;8768;-81
2022/07/08 00:37:13;;;;;;;;;7.00;7.00;26.10;36.40;;;;;;5096928;28;11417;-80
2022/07/08 00:39:38;;;;;;;;;6.00;6.00;26.30;36.10;;;;;;5097123;28;8768;-81
2022/07/08 00:42:05;;;;;;;;;6.00;6.00;26.60;35.70;;;;;;5095296;28;8780;-81
2022/07/08 00:44:32;;;;;;;;;10.67;7.00;26.80;35.60;;;;;;5079167;28;8903;-81
2022/07/08 00:46:58;;;;;;;;;8.00;8.00;26.60;36.10;;;;;;5096999;28;11459;-81
2022/07/08 00:49:24;;;;;;;;;6.67;6.67;26.50;36.50;;;;;;5097059;28;11406;-82
2022/07/08 00:51:50;;;;;;;;;5.00;5.00;26.20;36.90;;;;;;5096686;28;8868;-82
2022/07/08 00:54:19;;;;;;;;;5.00;5.00;26.20;37.20;;;;;;5095837;28;8748;-81
2022/07/08 00:56:45;;;;;;;;;6.00;6.00;26.10;37.40;;;;;;5078608;28;11399;-80
2022/07/08 00:59:12;;;;;;;;;5.00;5.00;26.00;37.60;;;;;;5096450;28;11407;-81
2022/07/08 01:01:37;;;;;;;;;6.00;6.00;26.10;37.70;;;;;;5096385;28;11411;-81
2022/07/08 01:04:04;;;;;;;;;6.67;6.67;25.90;38.10;;;;;;5096351;28;11395;-81
2022/07/08 01:06:30;;;;;;;;;7.00;7.00;26.10;38.00;;;;;;5096402;28;8768;-81
2022/07/08 01:08:56;;;;;;;;;5.67;5.67;25.60;39.00;;;;;;5096282;28;11468;-81
2022/07/08 01:11:22;;;;;;;;;7.00;7.00;25.40;39.60;;;;;;5096165;28;12041;-80
2022/07/08 01:13:48;;;;;;;;;6.00;6.00;25.40;40.00;;;;;;5096506;28;11390;-81
2022/07/08 01:16:15;;;;;;;;;9.00;8.00;25.30;40.20;;;;;;5096071;28;11397;-81
2022/07/08 01:18:41;;;;;;;;;5.33;5.33;25.40;40.00;;;;;;5096143;28;9536;-82
2022/07/08 01:21:07;;;;;;;;;7.00;7.00;25.40;40.10;;;;;;5078156;28;11402;-81
2022/07/08 01:23:34;;;;;;;;;6.67;6.67;25.50;40.00;;;;;;5096169;28;8791;-81
2022/07/08 01:26:00;;;;;;;;;8.33;8.33;25.50;40.00;;;;;;5096049;28;11385;-80
2022/07/08 01:28:26;;;;;;;;;8.00;8.00;25.60;39.80;;;;;;5096199;28;8768;-82
2022/07/08 01:30:52;;;;;;;;;9.00;9.00;25.60;40.00;;;;;;5095892;28;11388;-81
2022/07/08 01:33:18;;;;;;;;;7.00;7.00;25.50;40.40;;;;;;5096385;28;11384;-81
2022/07/08 01:35:44;;;;;;;;;7.00;7.00;25.30;41.00;;;;;;5095840;28;11423;-82
2022/07/08 01:38:10;;;;;;;;;8.00;8.00;25.10;41.90;;;;;;5095926;28;11371;-81
2022/07/08 01:40:36;;;;;;;;;8.00;8.00;25.20;41.80;;;;;;5095853;28;8756;-81
2022/07/08 01:43:02;;;;;;;;;9.67;9.00;25.20;41.80;;;;;;5095893;28;8795;-81
2022/07/08 01:45:28;;;;;;;;;7.00;7.00;25.30;41.70;;;;;;5095796;28;9459;-82
2022/07/08 01:47:54;;;;;;;;;8.33;8.33;25.30;41.90;;;;;;5095770;28;11401;-82
2022/07/08 01:50:20;;;;;;;;;9.33;8.33;25.30;42.30;;;;;;5077644;28;8808;-82
2022/07/08 01:52:46;;;;;;;;;9.67;9.67;25.20;42.80;;;;;;5095595;28;8768;-79
2022/07/08 01:55:12;;;;;;;;;9.00;9.00;24.90;43.80;;;;;;5095509;28;8783;-82
2022/07/08 01:57:38;;;;;;;;;11.00;11.00;24.90;44.20;;;;;;5095481;28;8775;-82
2022/07/08 02:00:05;;;;;;;;;10.00;8.67;24.70;44.80;;;;;;5095445;28;8862;-81
2022/07/08 02:02:31;;;;;;;;;10.00;10.00;24.60;45.20;;;;;;5095517;28;8808;-82
2022/07/08 02:04:57;;;;;;;;;10.67;10.67;24.70;44.80;;;;;;5095447;28;9429;-80
2022/07/08 02:07:23;;;;;;;;;11.00;11.00;24.90;44.60;;;;;;5095122;28;8788;-81
2022/07/08 02:09:49;;;;;;;;;15.00;13.33;24.90;44.90;;;;;;5095274;28;9116;-82
2022/07/08 02:12:21;;;;;;;;;11.00;11.00;24.90;45.00;;;;;;5095225;28;9450;-82
2022/07/08 02:14:50;;;;;;;;;11.67;10.67;24.80;45.50;;;;;;5095548;28;8863;-82
2022/07/08 02:17:17;;;;;;;;;10.33;10.33;25.00;45.00;;;;;;5094967;28;8772;-82
2022/07/08 02:19:44;;;;;;;;;11.67;11.67;25.10;45.00;;;;;;5094861;28;8807;-81
2022/07/08 02:22:10;;;;;;;;;9.33;9.33;25.30;44.90;;;;;;5095217;28;8795;-83
2022/07/08 02:24:37;;;;;;;;;14.00;13.67;25.10;45.50;;;;;;5095363;28;8748;-82
2022/07/08 02:27:03;;;;;;;;;11.67;11.67;24.90;46.20;;;;;;5095048;28;8783;-81
2022/07/08 02:29:30;;;;;;;;;11.67;11.67;24.80;46.50;;;;;;5095288;28;8760;-81
2022/07/08 02:31:55;;;;;;;;;8.67;8.67;24.90;46.30;;;;;;5095248;28;9433;-81
2022/07/08 02:34:21;;;;;;;;;12.00;12.00;24.90;46.70;;;;;;5095094;28;8788;-81
2022/07/08 02:36:47;;;;;;;;;13.33;12.33;24.60;47.80;;;;;;5094791;28;8828;-81
2022/07/08 02:39:13;;;;;;;;;10.67;10.67;24.50;48.50;;;;;;5094966;28;8794;-81
2022/07/08 02:41:42;;;;;;;;;11.67;11.00;24.70;48.30;;;;;;5094855;28;8814;-82
2022/07/08 02:44:09;;;;;;;;;10.33;10.33;24.50;48.80;;;;;;5094663;28;8776;-81
2022/07/08 02:46:35;;;;;;;;;12.00;12.00;24.60;48.70;;;;;;5094889;28;8775;-81
2022/07/08 02:49:02;;;;;;;;;14.67;13.67;24.70;48.60;;;;;;5094940;28;8991;-82
2022/07/08 02:51:28;;;;;;;;;14.33;13.33;24.60;48.80;;;;;;5094593;28;8760;-81
2022/07/08 02:53:54;;;;;;;;;12.33;12.33;24.80;48.10;;;;;;5094783;28;8781;-81
2022/07/08 02:56:19;;;;;;;;;11.00;11.00;24.90;48.20;;;;;;5095067;28;8840;-81
2022/07/08 02:58:45;;;;;;;;;12.00;12.00;25.00;48.30;;;;;;5095233;28;9416;-81
2022/07/08 03:01:11;;;;;;;;;10.00;10.00;24.80;49.20;;;;;;5094386;28;8791;-82
2022/07/08 03:03:37;;;;;;;;;10.67;10.67;24.70;49.60;;;;;;5094445;28;8826;-81
2022/07/08 03:06:03;;;;;;;;;12.00;12.00;24.80;49.30;;;;;;5094778;28;8775;-81
2022/07/08 03:08:29;;;;;;;;;11.67;10.33;24.80;49.30;;;;;;5076631;28;8888;-80
2022/07/08 03:10:55;;;;;;;;;11.00;11.00;24.90;49.50;;;;;;5094388;28;8870;-81
2022/07/08 03:13:20;;;;;;;;;9.67;9.67;24.60;49.90;;;;;;5094374;28;8763;-81
2022/07/08 03:15:46;;;;;;;;;11.67;11.67;24.60;50.10;;;;;;5094335;28;8786;-82
2022/07/08 03:18:12;;;;;;;;;7.00;7.00;24.60;50.40;;;;;;5096294;28;8834;-81
2022/07/08 03:20:38;;;;;;;;;10.33;10.33;24.80;49.80;;;;;;5098487;28;8744;-81
2022/07/08 03:23:04;;;;;;;;;12.00;12.00;24.60;50.50;;;;;;5098638;28;8792;-81
2022/07/08 03:25:29;;;;;;;;;9.33;9.33;24.50;50.50;;;;;;5098666;28;8799;-81
2022/07/08 03:27:56;;;;;;;;;9.33;8.67;24.70;50.30;;;;;;5098304;28;9370;-80
2022/07/08 03:30:22;;;;;;;;;10.33;10.33;24.50;50.70;;;;;;5098267;28;8772;-80
2022/07/08 03:32:48;;;;;;;;;11.33;11.33;24.40;51.30;;;;;;5098547;28;8799;-81
2022/07/08 03:35:14;;;;;;;;;11.00;11.00;24.30;51.60;;;;;;5098212;28;9391;-83
2022/07/08 03:37:43;;;;;;;;;10.00;10.00;24.10;52.40;;;;;;5098050;28;8875;-81
2022/07/08 03:42:55;;;;;;;;;10.00;10.00;24.10;52.50;;;;;;5098050;28;9394;-81
2022/07/08 03:45:21;;;;;;;;;10.00;10.00;24.00;52.80;;;;;;5097937;28;8799;-81
2022/07/08 03:47:47;;;;;;;;;9.67;9.67;24.00;52.90;;;;;;5098253;28;8810;-81
2022/07/08 03:50:13;;;;;;;;;10.67;10.67;23.90;53.30;;;;;;5097939;28;8772;-82
2022/07/08 03:52:39;;;;;;;;;12.00;12.00;24.00;53.30;;;;;;5098313;28;8777;-81
2022/07/08 03:55:06;;;;;;;;;9.00;9.00;24.00;53.30;;;;;;5098122;28;8842;-81
2022/07/08 03:57:32;;;;;;;;;12.33;12.33;24.00;53.20;;;;;;5079878;28;8810;-81
2022/07/08 03:59:58;;;;;;;;;7.67;7.67;24.10;53.10;;;;;;5097980;28;9422;-81
2022/07/08 04:02:24;;;;;;;;;9.67;9.67;24.20;52.80;;;;;;5097580;28;8801;-81
2022/07/08 04:04:50;;;;;;;;;11.00;11.00;24.20;53.30;;;;;;5097999;28;8772;-80
2022/07/08 04:07:16;;;;;;;;;10.00;10.00;24.10;53.30;;;;;;5097836;28;8763;-81
2022/07/08 04:09:42;;;;;;;;;11.33;11.33;24.50;52.00;;;;;;5097797;28;8866;-82
2022/07/08 04:12:09;;;;;;;;;13.33;13.33;24.40;52.60;;;;;;5097489;28;8798;-81
2022/07/08 04:14:35;;;;;;;;;11.33;11.33;24.60;52.10;;;;;;5097356;28;8763;-81
2022/07/08 04:17:00;;;;;;;;;12.33;12.33;24.50;52.20;;;;;;5097668;28;8787;-81
2022/07/08 04:19:26;;;;;;;;;12.00;10.00;24.40;52.30;;;;;;5097194;28;8804;-81
2022/07/08 04:21:52;;;;;;;;;14.33;12.00;24.10;53.90;;;;;;5097275;28;8869;-81
2022/07/08 04:24:18;;;;;;;;;13.33;12.00;24.00;54.60;;;;;;5097543;28;8784;-82
2022/07/08 04:26:44;;;;;;;;;10.00;10.00;24.00;54.70;;;;;;5097327;28;8752;-82
2022/07/08 04:29:10;;;;;;;;;12.00;12.00;24.00;54.40;;;;;;5097300;28;8768;-82
2022/07/08 04:31:36;;;;;;;;;11.67;11.67;24.20;53.80;;;;;;5097125;28;8802;-80
2022/07/08 04:34:02;;;;;;;;;11.00;11.00;24.50;52.70;;;;;;5097632;28;8794;-82
2022/07/08 04:36:27;;;;;;;;;11.67;11.33;24.50;52.90;;;;;;5097000;28;8760;-81
2022/07/08 04:38:53;;;;;;;;;13.00;13.00;24.50;52.70;;;;;;5097363;28;8755;-81
2022/07/08 04:41:19;;;;;;;;;13.33;13.33;24.10;53.90;;;;;;5097086;28;9495;-81
2022/07/08 04:43:45;;;;;;;;;15.33;15.00;23.90;54.70;;;;;;5096937;28;8779;-81
2022/07/08 04:46:12;;;;;;;;;11.00;9.67;23.80;54.90;;;;;;5096855;28;8898;-81
2022/07/08 04:48:39;;;;;;;;;11.00;11.00;23.80;55.30;;;;;;5096973;28;8788;-81
2022/07/08 04:51:05;;;;;;;;;10.67;10.67;23.90;55.10;;;;;;5096789;28;8844;-81
2022/07/08 04:53:30;;;;;;;;;11.67;11.67;23.60;55.90;;;;;;5096976;28;8780;-81
2022/07/08 04:55:56;;;;;;;;;12.00;12.00;23.70;55.50;;;;;;5096708;28;8784;-81
2022/07/08 04:58:22;;;;;;;;;12.00;12.00;23.80;55.10;;;;;;5096825;28;8910;-81
2022/07/08 05:00:48;;;;;;;;;11.33;10.33;23.70;55.60;;;;;;5096947;28;8771;-80
2022/07/08 05:03:13;;;;;;;;;12.33;12.33;23.30;56.80;;;;;;5078553;28;8810;-81
2022/07/08 05:05:39;;;;;;;;;14.00;13.00;23.10;57.80;;;;;;5096503;28;8767;-81
2022/07/08 05:08:05;;;;;;;;;8.00;8.00;23.20;57.60;;;;;;5096552;28;8790;-81
2022/07/08 05:10:31;;;;;;;;;9.33;9.33;23.40;57.20;;;;;;5096441;28;8772;-82
2022/07/08 05:12:58;;;;;;;;;12.00;12.00;23.50;56.60;;;;;;5096390;28;8793;-81
2022/07/08 05:15:25;;;;;;;;;12.00;12.00;23.90;55.20;;;;;;5096941;28;8871;-81
2022/07/08 05:17:52;;;;;;;;;13.00;12.33;24.20;54.10;;;;;;5096263;28;8827;-79
2022/07/08 05:20:19;;;;;;;;;12.00;12.00;24.50;53.30;;;;;;5096359;28;8747;-80
2022/07/08 05:22:45;;;;;;;;;12.00;12.00;24.50;52.70;;;;;;5096336;28;8788;-79
2022/07/08 05:25:12;;;;;;;;;11.67;10.33;24.60;52.40;;;;;;5078194;28;8767;-80
2022/07/08 05:27:38;;;;;;;;;18.00;18.00;24.80;52.40;;;;;;5096067;28;8768;-80
2022/07/08 05:30:06;;;;;;;;;20.67;17.67;24.80;51.60;;;;;;5096241;28;9425;-81
2022/07/08 05:32:32;;;;;;;;;13.00;12.00;24.80;51.60;;;;;;5095927;28;8810;-80
2022/07/08 05:34:58;;;;;;;;;14.67;14.00;24.70;52.40;;;;;;5095791;28;9435;-80
2022/07/08 05:37:24;;;;;;;;;10.00;10.00;24.20;54.30;;;;;;5096083;28;8775;-80
2022/07/08 05:39:50;;;;;;;;;12.00;11.33;23.80;55.70;;;;;;5095292;28;8764;-81
2022/07/08 05:42:16;;;;;;;;;12.00;12.00;23.70;56.30;;;;;;5095628;28;8792;-80
2022/07/08 05:44:41;;;;;;;;;14.00;14.00;23.80;56.10;;;;;;5095640;28;8780;-80
2022/07/08 05:47:08;;;;;;;;;16.33;16.33;24.00;55.50;;;;;;5095800;28;8764;-80
2022/07/08 05:49:37;;;;;;;;;15.00;13.67;24.30;54.40;;;;;;5095600;28;8796;-81
2022/07/08 05:52:06;;;;;;;;;14.00;14.00;24.60;53.90;;;;;;5095593;28;8796;-80
2022/07/08 05:54:32;;;;;;;;;15.00;15.00;24.70;53.40;;;;;;5095505;28;9435;-82
2022/07/08 05:56:59;;;;;;;;;13.00;13.00;24.80;53.00;;;;;;5095487;28;8796;-81
2022/07/08 05:59:26;;;;;;;;;15.67;15.67;24.90;52.70;;;;;;5095669;28;9617;-81
2022/07/08 06:01:52;;;;;;;;;13.00;13.00;25.10;52.60;;;;;;5095596;28;8795;-81
2022/07/08 06:04:18;;;;;;;;;17.67;17.33;25.10;52.20;;;;;;5095333;28;8792;-81
2022/07/08 06:06:43;;;;;;;;;15.00;15.00;25.10;52.80;;;;;;5095720;28;8760;-81
2022/07/08 06:09:11;;;;;;;;;23.00;23.00;25.00;52.90;;;;;;5095453;28;8844;-82
2022/07/08 06:11:37;;;;;;;;;11.00;11.00;25.00;52.90;;;;;;5095317;28;8751;-82
2022/07/08 06:14:03;;;;;;;;;17.00;16.00;24.90;53.30;;;;;;5095166;28;8772;-80
2022/07/08 06:16:29;;;;;;;;;14.67;14.00;24.90;53.60;;;;;;5095116;28;8875;-80
2022/07/08 06:18:54;;;;;;;;;17.00;17.00;25.00;53.30;;;;;;5095191;28;8957;-80
2022/07/08 06:21:20;;;;;;;;;11.00;11.00;25.10;52.70;;;;;;5094923;28;8894;-80
2022/07/08 06:23:46;;;;;;;;;15.67;15.67;25.10;52.30;;;;;;5095049;28;8748;-80
2022/07/08 06:26:12;;;;;;;;;13.00;13.00;25.20;52.00;;;;;;5094853;28;8775;-81
2022/07/08 06:28:38;;;;;;;;;17.33;17.33;25.30;51.90;;;;;;5094917;28;8778;-81
2022/07/08 06:31:04;;;;;;;;;13.33;12.33;25.30;51.70;;;;;;5094958;28;9239;-82
2022/07/08 06:33:30;;;;;;;;;18.00;18.00;25.20;51.60;;;;;;5077061;28;9480;-81
2022/07/08 06:35:55;;;;;;;;;14.33;14.33;24.60;53.40;;;;;;5094793;28;8756;-81
2022/07/08 06:38:21;;;;;;;;;16.00;16.00;24.30;54.30;;;;;;5095083;28;8792;-81
2022/07/08 06:40:47;;;;;;;;;12.33;12.33;24.40;54.50;;;;;;5095233;28;8782;-81
2022/07/08 06:43:13;;;;;;;;;15.33;15.33;23.90;56.30;;;;;;5076952;28;8887;-81
2022/07/08 06:45:39;;;;;;;;;17.33;16.33;23.50;57.60;;;;;;5094655;28;8748;-81
2022/07/08 06:48:05;;;;;;;;;8.00;8.00;23.30;58.40;;;;;;5076797;28;8768;-81
2022/07/08 06:50:31;;;;;;;;;16.33;16.33;23.50;57.70;;;;;;5094617;28;8744;-81
2022/07/08 06:52:57;;;;;;;;;13.00;12.67;23.50;57.70;;;;;;5093645;28;8748;-81
2022/07/08 06:55:23;;;;;;;;;12.00;12.00;23.40;58.40;;;;;;5095493;28;9393;-81
2022/07/08 06:57:49;;;;;;;;;17.00;15.67;23.70;57.60;;;;;;5094458;28;8783;-81
2022/07/08 07:00:15;;;;;;;;;16.33;15.33;23.70;57.50;;;;;;5076685;28;9477;-81
2022/07/08 07:02:41;;;;;;;;;13.00;12.00;23.40;58.10;;;;;;5094331;28;8810;-81
2022/07/08 07:05:08;;;;;;;;;15.33;14.00;23.50;57.90;;;;;;5094403;28;8768;-81
2022/07/08 07:07:34;;;;;;;;;16.00;16.00;23.50;58.20;;;;;;5094413;28;8760;-80
2022/07/08 07:10:00;;;;;;;;;14.33;14.33;23.60;57.20;;;;;;5094407;28;8760;-82
2022/07/08 07:12:26;;;;;;;;;15.67;15.67;23.80;56.50;;;;;;5094283;28;8883;-81
2022/07/08 07:14:51;;;;;;;;;10.00;10.00;23.70;56.80;;;;;;5094372;28;8764;-81
2022/07/08 07:17:19;;;;;;;;;17.00;15.00;23.50;57.80;;;;;;5094513;28;8844;-81
2022/07/08 07:19:46;;;;;;;;;13.33;13.33;23.60;57.80;;;;;;5094108;28;9437;-81
2022/07/08 07:22:13;;;;;;;;;14.67;14.67;23.60;57.60;;;;;;5094113;28;8806;-81
2022/07/08 07:24:39;;;;;;;;;15.33;14.67;23.60;57.30;;;;;;5094114;28;8744;-80
2022/07/08 07:27:05;;;;;;;;;18.00;15.00;23.80;56.60;;;;;;5094119;28;8828;-81
2022/07/08 07:29:31;;;;;;;;;12.00;11.00;23.80;56.60;;;;;;5094259;28;8756;-80
2022/07/08 07:31:56;;;;;;;;;17.33;17.33;23.90;56.20;;;;;;5094429;28;8818;-80
2022/07/08 07:34:22;;;;;;;;;14.67;14.67;23.80;56.60;;;;;;5094234;28;8782;-80
2022/07/08 07:36:48;;;;;;;;;14.33;14.33;23.90;56.10;;;;;;5094164;28;8881;-80
2022/07/08 07:39:14;;;;;;;;;17.00;16.00;23.60;57.60;;;;;;5094422;28;8756;-80
2022/07/08 07:41:40;;;;;;;;;15.00;15.00;23.30;58.80;;;;;;5076107;28;8776;-81
2022/07/08 07:44:06;;;;;;;;;15.33;15.33;23.30;59.50;;;;;;5094161;28;8768;-80
2022/07/08 07:46:32;;;;;;;;;18.33;17.67;23.50;58.60;;;;;;5076163;28;8796;-81
2022/07/08 07:48:58;;;;;;;;;13.00;12.67;23.40;58.30;;;;;;5094370;28;8772;-80
2022/07/08 07:51:25;;;;;;;;;17.00;17.00;23.60;58.00;;;;;;5094221;28;8881;-80
2022/07/08 07:53:51;;;;;;;;;18.00;17.67;23.70;57.40;;;;;;5093915;28;8841;-80
2022/07/08 07:56:16;;;;;;;;;15.00;15.00;23.60;57.60;;;;;;5093867;28;8756;-79
2022/07/08 07:58:42;;;;;;;;;20.33;20.33;23.60;57.80;;;;;;5094145;28;8756;-80
2022/07/08 08:01:08;;;;;;;;;17.67;17.67;23.40;58.70;;;;;;5093874;28;8799;-79
2022/07/08 08:03:34;;;;;;;;;13.00;13.00;23.30;59.50;;;;;;5076786;28;8872;-80
2022/07/08 08:06:00;;;;;;;;;22.33;21.67;23.20;60.10;;;;;;5097610;28;8772;-79
2022/07/08 08:08:31;;;;;;;;;18.67;18.67;23.00;60.90;;;;;;5097485;28;8764;-80
2022/07/08 08:10:58;;;;;;;;;15.33;15.33;23.40;59.30;;;;;;5079588;28;8853;-80
2022/07/08 08:13:24;;;;;;;;;15.00;14.00;23.70;57.90;;;;;;5079445;28;8868;-82
2022/07/08 08:15:50;;;;;;;;;18.00;18.00;23.80;57.60;;;;;;5097432;28;9397;-82
2022/07/08 08:18:16;;;;;;;;;16.33;16.33;23.80;57.40;;;;;;5097245;28;8900;-81
2022/07/08 08:20:42;;;;;;;;;17.67;17.67;23.90;57.20;;;;;;5097278;28;8756;-81
2022/07/08 08:23:08;;;;;;;;;17.33;16.33;23.60;57.90;;;;;;5097060;28;8792;-81
2022/07/08 08:25:35;;;;;;;;;19.67;18.33;23.70;57.60;;;;;;5097183;28;8782;-80
2022/07/08 08:28:00;;;;;;;;;19.67;19.67;23.60;57.80;;;;;;5097565;28;8759;-82
2022/07/08 08:30:26;;;;;;;;;16.67;16.67;23.60;58.90;;;;;;5097283;28;9456;-82
2022/07/08 08:32:52;;;;;;;;;19.00;19.00;23.40;58.60;;;;;;5097134;28;8744;-81
2022/07/08 08:35:19;;;;;;;;;18.00;18.00;23.50;58.70;;;;;;5097174;28;8771;-80
2022/07/08 08:37:44;;;;;;;;;18.00;17.33;23.50;58.50;;;;;;5096844;28;8790;-81
2022/07/08 08:40:13;;;;;;;;;17.00;17.00;23.60;57.70;;;;;;5097056;28;8740;-80
2022/07/08 08:42:40;;;;;;;;;18.00;17.00;23.70;57.50;;;;;;5096849;28;8791;-80
2022/07/08 08:45:07;;;;;;;;;18.00;17.33;23.40;58.70;;;;;;5096881;28;8760;-80
2022/07/08 08:47:36;;;;;;;;;17.00;17.00;23.50;58.50;;;;;;5097236;28;8775;-80
2022/07/08 08:52:52;;;;;;;;;17.67;17.67;23.40;58.30;;;;;;5096949;28;8740;-81
2022/07/08 08:55:24;;;;;;;;;14.00;14.00;23.50;58.00;;;;;;5096821;28;8779;-79
2022/07/08 08:57:50;;;;;;;;;19.67;19.67;23.70;57.50;;;;;;5097052;28;8768;-79
2022/07/08 09:00:16;;;;;;;;;17.67;17.67;23.90;56.90;;;;;;5096610;28;8768;-79
2022/07/08 09:02:42;;;;;;;;;19.00;19.00;23.80;57.10;;;;;;5096444;28;8819;-79
2022/07/08 09:05:08;;;;;;;;;15.33;15.33;23.90;56.90;;;;;;5096596;28;8768;-80
2022/07/08 09:07:34;;;;;;;;;18.33;17.33;23.90;56.40;;;;;;5096460;28;8759;-79
2022/07/08 09:10:00;;;;;;;;;21.33;20.00;24.00;56.00;;;;;;5078459;28;8786;-80
2022/07/08 09:12:26;;;;;;;;;18.00;18.00;24.10;55.60;;;;;;5096541;28;8763;-81
2022/07/08 09:14:54;;;;;;;;;18.33;18.00;24.10;55.50;;;;;;5095544;28;8870;-79
2022/07/08 09:17:21;;;;;;;;;17.67;17.00;24.00;56.20;;;;;;5095984;28;8790;-79
2022/07/08 09:19:50;;;;;;;;;17.33;17.33;24.10;55.80;;;;;;5096081;28;8807;-80
2022/07/08 09:22:16;;;;;;;;;16.67;16.67;23.90;56.10;;;;;;5078364;28;8792;-79
2022/07/08 09:24:43;;;;;;;;;20.67;19.33;23.90;56.10;;;;;;5096279;28;9542;-80
2022/07/08 09:27:11;;;;;;;;;17.67;17.67;24.00;55.90;;;;;;5096121;28;8871;-81
2022/07/08 09:29:57;;;;;;;;;19.33;18.67;24.00;56.20;;;;;;5095990;28;8790;-80
2022/07/08 09:32:23;;;;;;;;;18.00;18.00;23.80;56.90;;;;;;5095891;28;8779;-80
2022/07/08 09:34:48;;;;;;;;;18.67;18.67;23.80;57.30;;;;;;5096111;28;8841;-80
2022/07/08 09:37:16;;;;;;;;;21.00;21.00;23.50;58.40;;;;;;5096309;28;8772;-80
2022/07/08 09:39:46;;;;;;;;;17.67;16.67;23.40;58.90;;;;;;5096059;28;8808;-80
2022/07/08 09:42:19;;;;;;;;;16.00;16.00;23.50;58.40;;;;;;5094991;28;8843;-79
2022/07/08 09:44:54;;;;;;;;;20.00;20.00;23.80;57.30;;;;;;5095769;28;8763;-80
2022/07/08 09:47:22;;;;;;;;;22.33;22.33;23.90;56.80;;;;;;5095897;28;8799;-80
2022/07/08 09:49:47;;;;;;;;;13.33;13.33;23.70;57.70;;;;;;5077747;28;9511;-80
2022/07/08 09:52:23;;;;;;;;;23.67;22.67;23.70;57.70;;;;;;5095731;28;8871;-79
2022/07/08 09:55:01;;;;;;;;;18.00;18.00;23.70;57.60;;;;;;5077727;28;9164;-81
2022/07/08 09:57:29;;;;;;;;;18.67;18.67;23.80;57.40;;;;;;5095904;28;9444;-80
2022/07/08 09:59:55;;;;;;;;;19.00;18.00;24.00;56.60;;;;;;5095659;28;8768;-81
2022/07/08 10:02:22;;;;;;;;;18.00;17.33;24.20;55.90;;;;;;5095567;28;8880;-80
2022/07/08 10:04:50;;;;;;;;;20.67;20.33;24.20;55.60;;;;;;5095284;28;8768;-80
2022/07/08 10:07:16;;;;;;;;;18.00;18.00;24.00;56.10;;;;;;5095491;28;8763;-80
2022/07/08 10:09:42;;;;;;;;;17.00;17.00;23.90;56.40;;;;;;5095148;28;9514;-80
2022/07/08 10:12:12;;;;;;;;;19.00;19.00;24.00;56.30;;;;;;5095158;28;8770;-80
2022/07/08 10:14:38;;;;;;;;;21.00;20.00;24.00;56.30;;;;;;5095065;28;8856;-81
2022/07/08 10:17:10;;;;;;;;;19.00;19.00;24.00;56.20;;;;;;5094856;28;8768;-80
2022/07/08 10:19:38;;;;;;;;;20.33;20.33;23.60;57.90;;;;;;5094857;28;8873;-80
2022/07/08 10:22:08;;;;;;;;;20.00;20.00;23.50;57.80;;;;;;5095157;28;8776;-81
2022/07/08 10:24:39;;;;;;;;;22.00;22.00;23.60;57.90;;;;;;5095037;28;8752;-80
2022/07/08 10:27:05;;;;;;;;;18.67;18.67;23.60;57.90;;;;;;5094965;28;9496;-80
2022/07/08 10:29:33;;;;;;;;;19.67;19.67;23.60;57.10;;;;;;5094972;28;8764;-80
2022/07/08 10:32:00;;;;;;;;;22.33;22.33;23.70;56.80;;;;;;5094780;28;8888;-80
2022/07/08 10:34:34;;;;;;;;;19.00;19.00;23.50;57.90;;;;;;5095061;28;8836;-80
2022/07/08 10:37:03;;;;;;;;;20.00;19.33;23.70;57.60;;;;;;5095136;28;8768;-80
2022/07/08 10:39:37;;;;;;;;;19.33;19.33;23.80;57.50;;;;;;5094940;28;8772;-80
2022/07/08 10:42:04;;;;;;;;;18.33;18.33;23.90;57.10;;;;;;5094815;28;8784;-80
2022/07/08 10:44:45;;;;;;;;;20.33;19.67;23.70;57.80;;;;;;5094824;28;8748;-80
2022/07/08 10:47:11;;;;;;;;;20.33;20.33;23.50;58.30;;;;;;5076550;28;8799;-80
2022/07/08 10:49:45;;;;;;;;;17.00;17.00;23.40;59.20;;;;;;5094990;28;9456;-80
2022/07/08 10:52:15;;;;;;;;;23.33;23.33;23.70;58.40;;;;;;5094920;28;9366;-80
2022/07/08 10:54:42;;;;;;;;;20.67;20.67;23.80;58.10;;;;;;5094543;28;8815;-80
2022/07/08 10:57:27;;;;;;;;;16.67;16.67;24.00;57.00;;;;;;5094679;28;8795;-81
2022/07/08 11:00:10;;;;;;;;;19.33;16.67;24.00;56.60;;;;;;5094730;28;9455;-80
2022/07/08 11:02:45;;;;;;;;;21.00;20.33;23.90;57.40;;;;;;5094986;28;8872;-81
2022/07/08 11:05:37;;;;;;;;;19.00;19.00;24.00;57.30;;;;;;5094408;28;8768;-81
2022/07/08 11:08:22;;;;;;;;;20.33;20.33;24.20;56.90;;;;;;5094266;28;8764;-80
2022/07/08 11:10:49;;;;;;;;;21.00;21.00;24.20;56.90;;;;;;5094481;28;9370;-80
2022/07/08 11:13:15;;;;;;;;;18.67;18.67;24.10;57.40;;;;;;5094620;28;8752;-81
2022/07/08 11:15:41;;;;;;;;;20.00;20.00;24.20;56.90;;;;;;5094360;28;9386;-81
2022/07/08 11:18:07;;;;;;;;;19.33;19.00;24.30;56.30;;;;;;5094213;28;8803;-80
2022/07/08 11:20:35;;;;;;;;;20.67;20.67;24.50;55.50;;;;;;5094341;28;8732;-81
2022/07/08 11:23:05;;;;;;;;;20.67;20.67;24.80;54.40;;;;;;5094394;28;8788;-81
2022/07/08 11:25:31;;;;;;;;;22.00;21.67;25.10;53.80;;;;;;5094256;28;8764;-80
2022/07/08 11:27:57;;;;;;;;;16.67;16.00;25.20;53.60;;;;;;5094459;28;8764;-81
2022/07/08 11:30:27;;;;;;;;;18.67;17.33;25.40;52.90;;;;;;5094170;28;11462;-82
2022/07/08 11:32:53;;;;;;;;;24.67;23.00;25.00;54.10;;;;;;5094191;28;8783;-81
2022/07/08 11:35:22;;;;;;;;;22.33;21.33;24.90;54.10;;;;;;5094138;28;8764;-81
2022/07/08 11:37:48;;;;;;;;;20.67;20.67;25.10;53.90;;;;;;5093921;28;8790;-80
2022/07/08 11:40:18;;;;;;;;;20.67;20.67;25.60;52.70;;;;;;5097913;28;8752;-81
2022/07/08 11:42:44;;;;;;;;;23.33;22.00;25.80;52.20;;;;;;5098261;28;8879;-80
2022/07/08 11:45:12;;;;;;;;;20.67;20.00;26.20;51.10;;;;;;5098066;28;8776;-80
2022/07/08 11:47:38;;;;;;;;;16.33;15.33;26.00;51.80;;;;;;5098258;28;9486;-81
2022/07/08 11:50:07;;;;;;;;;21.33;21.33;25.90;51.80;;;;;;5079890;28;12083;-81
2022/07/08 11:52:32;;;;;;;;;16.00;16.00;25.80;51.60;;;;;;5098244;28;8764;-80
2022/07/08 11:54:58;;;;;;;;;18.33;18.33;25.80;51.40;;;;;;5097777;28;11471;-80
2022/07/08 11:57:24;;;;;;;;;16.67;16.67;26.20;50.80;;;;;;5097689;28;8752;-81
2022/07/08 11:59:50;;;;;;;;;15.25;15.25;26.70;49.20;;;;;;5098025;28;9513;-81
2022/07/08 12:02:23;;;;;;;;;16.25;16.25;27.50;48.30;;;;;;5097624;28;11623;-82
2022/07/08 12:04:51;;;;;;;;;18.00;18.00;28.30;45.20;;;;;;5097412;28;11419;-81
2022/07/08 12:07:24;;;;;;;;;17.00;17.00;28.40;44.70;;;;;;5079511;28;11535;-81
2022/07/08 12:09:57;;;;;;;;;16.00;16.00;29.20;44.50;;;;;;5097651;28;11426;-82
2022/07/08 12:12:25;;;;;;;;;15.50;14.75;29.60;42.80;;;;;;5097666;28;11453;-82
2022/07/08 12:14:51;;;;;;;;;14.50;14.50;30.70;39.80;;;;;;5097380;28;11420;-82
2022/07/08 12:17:35;;;;;;;;;13.50;13.50;31.20;38.70;;;;;;5097279;28;11439;-81
2022/07/08 12:20:01;;;;;;;;;14.75;14.75;31.70;37.70;;;;;;5097302;28;8868;-80
2022/07/08 12:22:47;;;;;;;;;14.00;14.00;31.60;36.90;;;;;;5097320;28;11468;-80
2022/07/08 12:25:17;;;;;;;;;14.00;13.25;32.10;37.00;;;;;;5097491;28;8772;-81
2022/07/08 12:27:44;;;;;;;;;11.00;11.00;31.90;37.40;;;;;;5097389;28;11475;-81
2022/07/08 12:30:11;;;;;;;;;13.75;13.75;31.90;37.90;;;;;;5097159;28;12217;-80
2022/07/08 12:32:40;;;;;;;;;17.00;17.00;31.60;37.00;;;;;;5097186;28;11438;-82
2022/07/08 12:35:11;;;;;;;;;14.50;14.50;31.20;37.70;;;;;;5096926;28;11458;-82
2022/07/08 12:37:37;;;;;;;;;13.25;12.00;31.30;37.70;;;;;;5097187;28;11525;-82
2022/07/08 12:40:24;;;;;;;;;16.75;16.75;31.30;37.90;;;;;;5079028;28;11451;-82
2022/07/08 12:43:03;;;;;;;;;15.25;14.25;31.00;38.70;;;;;;5094803;28;11494;-82